Time;durP1;ratioP1;P1;durP2;ratioP2;P2;SDS_P1;SDS_P2;PMS_P1;PMS_P2;Temp;Humidity;BMP_temperature;BMP_pressure;BME280_temperature;BME280_humidity;BME280_pressure;Samples;Min_cycle;Max_cycle;Signal;HPM_P1;HPM_P2
2023/12/06 00:00:51;;;;;;;;;;;;;;;22.36;31.33;100979.22;4197119;28;19933;-65
2023/12/06 00:02:53;;;;;;;;;;;;;;;22.39;30.94;100984.38;4197637;28;19993;-65
2023/12/06 00:04:54;;;;;;;;;;;;;;;22.39;31.32;100987.03;4197478;28;19971;-65
2023/12/06 00:06:56;;;;;;;;;;;;;;;22.39;31.08;100987.03;4197427;28;19920;-65
2023/12/06 00:08:58;;;;;;;;;;;;;;;22.38;31.07;100994.22;4197357;28;20011;-65
2023/12/06 00:11:00;;;;;;;;;;;;;;;22.37;31.03;100991.63;4196397;28;20348;-65
2023/12/06 00:13:01;;;;;;;;;;;;;;;22.36;31.39;100992.59;4197515;28;20353;-65
2023/12/06 00:15:03;;;;;;;;;;;;;;;22.33;31.35;100997.25;4197068;28;20359;-65
2023/12/06 00:17:05;;;;;;;;;;;;;;;22.25;31.39;100997.03;4197201;28;20289;-65
2023/12/06 00:19:07;;;;;;;;;;;;;;;22.33;31.22;100991.91;4197474;28;20319;-65
2023/12/06 00:21:08;;;;;;;;;;;;;;;22.36;31.47;100997.97;4197110;28;19920;-65
2023/12/06 00:23:10;;;;;;;;;;;;;;;22.38;31.32;100998.69;4197164;28;19927;-65
2023/12/06 00:25:11;;;;;;;;;;;;;;;22.38;31.39;100993.34;4197364;28;19946;-64
2023/12/06 00:27:13;;;;;;;;;;;;;;;22.38;31.27;100993.34;4197319;28;19997;-64
2023/12/06 00:29:15;;;;;;;;;;;;;;;22.39;31.11;101001.28;4197057;28;19924;-64
2023/12/06 00:31:17;;;;;;;;;;;;;;;22.39;31.38;100997.75;4197128;28;19924;-64
2023/12/06 00:33:18;;;;;;;;;;;;;;;22.38;31.34;100999.56;4196410;28;19964;-65
2023/12/06 00:35:20;;;;;;;;;;;;;;;22.36;31.22;101008.69;4197263;28;20427;-65
2023/12/06 00:37:22;;;;;;;;;;;;;;;22.32;31.43;100997.38;4197041;28;19926;-65
2023/12/06 00:39:24;;;;;;;;;;;;;;;22.32;31.54;101000.03;4197067;28;19981;-65
2023/12/06 00:41:27;;;;;;;;;;;;;;;22.34;31.35;101003.47;4197224;28;19921;-65
2023/12/06 00:43:28;;;;;;;;;;;;;;;22.37;31.02;101007.72;4196800;28;20349;-65
2023/12/06 00:45:30;;;;;;;;;;;;;;;22.36;31.27;101009.56;4196860;28;19959;-65
2023/12/06 00:47:31;;;;;;;;;;;;;;;22.38;31.46;101015.66;4197069;28;20022;-64
2023/12/06 00:49:33;;;;;;;;;;;;;;;22.39;31.37;101014.69;4196978;28;19921;-64
2023/12/06 00:51:35;;;;;;;;;;;;;;;22.39;31.32;101011.16;4197056;28;20429;-64
2023/12/06 00:53:37;;;;;;;;;;;;;;;22.37;31.33;101016.63;4197211;28;19927;-64
2023/12/06 00:55:38;;;;;;;;;;;;;;;22.36;31.31;101022.09;4196758;28;20397;-65
2023/12/06 00:57:40;;;;;;;;;;;;;;;22.34;31.28;101024.91;4196417;28;19952;-65
2023/12/06 00:59:42;;;;;;;;;;;;;;;22.31;31.21;101023.31;4197028;28;19924;-64
2023/12/06 01:01:43;;;;;;;;;;;;;;;22.30;31.43;101026.13;4196840;28;20359;-64
2023/12/06 01:03:45;;;;;;;;;;;;;;;22.31;31.55;101019.81;4196875;28;19935;-64
2023/12/06 01:05:46;;;;;;;;;;;;;;;22.34;31.45;101031.09;4196654;28;19921;-65
2023/12/06 01:07:48;;;;;;;;;;;;;;;22.35;31.49;101029.28;4196840;28;19994;-65
2023/12/06 01:09:49;;;;;;;;;;;;;;;22.34;31.17;101028.41;4197083;28;19959;-65
2023/12/06 01:11:51;;;;;;;;;;;;;;;22.34;31.15;101030.25;4196662;28;19946;-65
2023/12/06 01:13:54;;;;;;;;;;;;;;;22.34;31.19;101031.09;4196544;28;19921;-66
2023/12/06 01:15:56;;;;;;;;;;;;;;;22.33;31.33;101028.53;4196834;28;19920;-65
2023/12/06 01:17:57;;;;;;;;;;;;;;;22.31;31.08;101039.41;4196587;28;19928;-65
2023/12/06 01:20:00;;;;;;;;;;;;;;;22.29;31.19;101043.19;4196706;28;20003;-65
2023/12/06 01:22:01;;;;;;;;;;;;;;;22.29;31.29;101032.47;4196929;28;19963;-65
2023/12/06 01:24:03;;;;;;;;;;;;;;;22.30;31.53;101036.84;4196812;28;19921;-65
2023/12/06 01:26:05;;;;;;;;;;;;;;;22.30;31.33;101036.84;4196714;28;19995;-65
2023/12/06 01:28:06;;;;;;;;;;;;;;;22.33;31.32;101033.91;4196419;28;19970;-65
2023/12/06 01:30:08;;;;;;;;;;;;;;;22.35;31.46;101042.69;4196674;28;19920;-64
2023/12/06 01:32:13;;;;;;;;;;;;;;;22.35;31.23;101040.00;4196778;28;19920;-64
2023/12/06 01:34:15;;;;;;;;;;;;;;;22.37;31.33;101047.91;4196744;28;20360;-65
2023/12/06 01:36:16;;;;;;;;;;;;;;;22.34;31.42;101049.00;4196471;28;19920;-65
2023/12/06 01:38:18;;;;;;;;;;;;;;;22.33;31.15;101053.53;4196513;28;19921;-65
2023/12/06 01:40:19;;;;;;;;;;;;;;;22.32;31.26;101049.13;4196595;28;19920;-65
2023/12/06 01:42:21;;;;;;;;;;;;;;;22.31;31.42;101060.81;4195910;28;19921;-65
2023/12/06 01:44:23;;;;;;;;;;;;;;;22.32;31.30;101056.31;4196820;28;19920;-65
2023/12/06 01:46:25;;;;;;;;;;;;;;;22.31;31.36;101060.81;4199615;28;19979;-65
2023/12/06 01:48:27;;;;;;;;;;;;;;;22.32;31.26;101067.03;4199596;28;19966;-66
2023/12/06 01:50:31;;;;;;;;;;;;;;;22.34;31.44;101062.41;4199786;28;19920;-65
2023/12/06 01:52:33;;;;;;;;;;;;;;;22.36;31.14;101070.31;4199653;28;20010;-65
2023/12/06 01:54:35;;;;;;;;;;;;;;;22.37;31.28;101064.84;4199571;28;19928;-64
2023/12/06 01:56:38;;;;;;;;;;;;;;;22.38;31.06;101066.56;4198936;28;19920;-65
2023/12/06 01:58:39;;;;;;;;;;;;;;;22.37;31.30;101066.66;4199723;28;19927;-65
2023/12/06 02:00:41;;;;;;;;;;;;;;;22.34;31.19;101079.31;4181836;28;20303;-65
2023/12/06 02:02:43;;;;;;;;;;;;;;;22.34;31.28;101081.16;4198105;28;19930;-65
2023/12/06 02:04:45;;;;;;;;;;;;;;;22.32;31.09;101081.28;4199420;28;19931;-65
2023/12/06 02:06:48;;;;;;;;;;;;;;;22.32;31.11;101083.09;4199488;28;19943;-65
2023/12/06 02:08:50;;;;;;;;;;;;;;;22.32;30.98;101091.16;4199359;28;19920;-64
2023/12/06 02:10:51;;;;;;;;;;;;;;;22.34;31.20;101098.09;4199125;28;20349;-65
2023/12/06 02:12:53;;;;;;;;;;;;;;;22.37;31.24;101094.34;4199399;28;19928;-65
2023/12/06 02:14:58;;;;;;;;;;;;;;;22.37;31.04;101097.00;4199190;28;19927;-65
2023/12/06 02:17:00;;;;;;;;;;;;;;;22.40;30.93;101099.47;4199035;28;20038;-65
2023/12/06 02:19:02;;;;;;;;;;;;;;;22.38;31.09;101106.75;4199229;28;20026;-64
2023/12/06 02:21:04;;;;;;;;;;;;;;;22.40;31.23;101109.34;4199435;28;20007;-63
2023/12/06 02:23:07;;;;;;;;;;;;;;;22.38;31.00;101105.91;4199141;28;19924;-65
2023/12/06 02:25:13;;;;;;;;;;;;;;;22.36;30.95;101103.34;4198922;28;20393;-64
2023/12/06 02:27:15;;;;;;;;;;;;;;;22.32;31.38;101108.09;4199237;28;20019;-64
2023/12/06 02:29:16;;;;;;;;;;;;;;;22.32;31.19;101108.09;4197927;28;19921;-64
2023/12/06 02:31:18;;;;;;;;;;;;;;;22.33;31.29;101111.59;4198964;28;19998;-64
2023/12/06 02:33:21;;;;;;;;;;;;;;;22.37;31.31;101109.53;4199060;28;20304;-64
2023/12/06 02:35:28;;;;;;;;;;;;;;;22.38;31.20;101103.22;4198979;28;19921;-66
2023/12/06 02:37:30;;;;;;;;;;;;;;;22.38;31.19;101106.75;4198936;28;19924;-65
2023/12/06 02:39:34;;;;;;;;;;;;;;;22.39;31.30;101108.47;4198572;28;20324;-65
2023/12/06 02:41:36;;;;;;;;;;;;;;;22.40;30.86;101118.22;4198931;28;19985;-65
2023/12/06 02:43:37;;;;;;;;;;;;;;;22.40;31.37;101115.53;4198964;28;19952;-65
2023/12/06 02:45:39;;;;;;;;;;;;;;;22.40;31.12;101117.38;4198704;28;19924;-65
2023/12/06 02:47:41;;;;;;;;;;;;;;;22.37;31.31;101121.13;4198883;28;19921;-65
2023/12/06 02:49:43;;;;;;;;;;;;;;;22.35;31.14;101115.03;4198820;28;20429;-65
2023/12/06 02:51:45;;;;;;;;;;;;;;;22.33;31.34;101115.16;4198945;28;19920;-65
2023/12/06 02:53:46;;;;;;;;;;;;;;;22.34;31.19;101116.84;4198405;28;19963;-65
2023/12/06 02:55:48;;;;;;;;;;;;;;;22.37;31.16;101121.13;4198028;28;20404;-65
2023/12/06 02:57:49;;;;;;;;;;;;;;;22.39;31.21;101123.72;4198719;28;19950;-65
2023/12/06 02:59:51;;;;;;;;;;;;;;;22.38;31.39;101122.84;4198616;28;19931;-66
2023/12/06 03:01:52;;;;;;;;;;;;;;;22.40;31.06;101133.47;4198800;28;19927;-65
2023/12/06 03:03:54;;;;;;;;;;;;;;;22.40;31.21;101131.63;4198580;28;19950;-65
2023/12/06 03:05:55;;;;;;;;;;;;;;;22.40;31.32;101131.63;4198456;28;19927;-64
2023/12/06 03:07:57;;;;;;;;;;;;;;;22.39;31.15;101132.59;4198619;28;19930;-65
2023/12/06 03:09:58;;;;;;;;;;;;;;;22.38;31.18;101133.56;4198191;28;19974;-65
2023/12/06 03:12:00;;;;;;;;;;;;;;;22.37;31.06;101139.03;4197237;28;19921;-64
2023/12/06 03:14:01;;;;;;;;;;;;;;;22.34;31.15;101134.75;4198460;28;19926;-65
2023/12/06 03:16:04;;;;;;;;;;;;;;;22.36;31.13;101137.31;4198314;28;19920;-65
2023/12/06 03:18:05;;;;;;;;;;;;;;;22.38;31.12;101138.06;4198399;28;19920;-65
2023/12/06 03:20:08;;;;;;;;;;;;;;;22.39;31.23;101135.28;4198306;28;19974;-65
2023/12/06 03:22:10;;;;;;;;;;;;;;;22.41;31.18;101127.97;4198182;28;20315;-65
2023/12/06 03:24:11;;;;;;;;;;;;;;;22.42;31.18;101132.38;4197956;28;20278;-65
2023/12/06 03:26:13;;;;;;;;;;;;;;;22.42;30.91;101123.44;4198129;28;19973;-65
2023/12/06 03:28:15;;;;;;;;;;;;;;;22.41;30.84;101127.13;4198118;28;20408;-65
2023/12/06 03:30:17;;;;;;;;;;;;;;;22.40;30.88;101128.09;4198140;28;20011;-65
2023/12/06 03:32:31;;;;;;;;;;;;;;;22.37;30.99;101120.25;4198114;28;19977;-64
2023/12/06 03:34:33;;;;;;;;;;;;;;;22.34;30.85;101113.31;4197917;28;20019;-64
2023/12/06 03:36:34;;;;;;;;;;;;;;;22.33;30.98;101112.47;4197966;28;19921;-65
2023/12/06 03:38:36;;;;;;;;;;;;;;;22.32;30.98;101110.78;4197547;28;20014;-64
2023/12/06 03:40:39;;;;;;;;;;;;;;;22.35;31.29;101101.63;4197963;28;20326;-65
2023/12/06 03:42:40;;;;;;;;;;;;;;;22.37;31.22;101102.38;4198071;28;19927;-63
2023/12/06 03:44:42;;;;;;;;;;;;;;;22.39;31.05;101110.31;4197998;28;19958;-64
2023/12/06 03:46:44;;;;;;;;;;;;;;;22.39;31.13;101103.13;4197962;28;20002;-64
2023/12/06 03:48:45;;;;;;;;;;;;;;;22.39;30.99;101111.16;4197957;28;19921;-65
2023/12/06 03:50:47;;;;;;;;;;;;;;;22.38;31.18;101101.41;4197730;28;19920;-64
2023/12/06 03:52:49;;;;;;;;;;;;;;;22.36;30.90;101103.34;4197601;28;19955;-64
2023/12/06 03:54:50;;;;;;;;;;;;;;;22.35;31.10;101104.31;4197629;28;19974;-64
2023/12/06 03:56:52;;;;;;;;;;;;;;;22.32;30.95;101100.06;4197560;28;19924;-65
2023/12/06 03:58:54;;;;;;;;;;;;;;;22.31;30.91;101097.50;4196575;28;20022;-64
2023/12/06 04:00:56;;;;;;;;;;;;;;;22.32;31.15;101096.50;4197735;28;19920;-65
2023/12/06 04:02:57;;;;;;;;;;;;;;;22.34;31.14;101105.28;4197781;28;19928;-64
2023/12/06 04:04:59;;;;;;;;;;;;;;;22.37;31.14;101099.69;4197671;28;19924;-64
2023/12/06 04:07:00;;;;;;;;;;;;;;;22.39;31.07;101103.13;4196619;28;20290;-65
2023/12/06 04:09:02;;;;;;;;;;;;;;;22.39;30.86;101105.78;4197776;28;19943;-65
2023/12/06 04:11:04;;;;;;;;;;;;;;;22.39;31.19;101107.63;4197377;28;19974;-65
2023/12/06 04:13:06;;;;;;;;;;;;;;;22.38;31.11;101103.22;4197519;28;19928;-65
2023/12/06 04:15:08;;;;;;;;;;;;;;;22.38;31.17;101111.25;4197124;28;19929;-65
2023/12/06 04:17:10;;;;;;;;;;;;;;;22.35;31.12;101117.72;4197493;28;20603;-65
2023/12/06 04:19:12;;;;;;;;;;;;;;;22.34;30.96;101110.66;4197320;28;19927;-65
2023/12/06 04:21:13;;;;;;;;;;;;;;;22.33;30.73;101116.97;4197024;28;19928;-65
2023/12/06 04:23:15;;;;;;;;;;;;;;;22.33;31.05;101114.28;4197590;28;19920;-65
2023/12/06 04:25:17;;;;;;;;;;;;;;;22.34;30.97;101119.53;4197292;28;20007;-65
2023/12/06 04:27:18;;;;;;;;;;;;;;;22.38;30.81;101119.28;4197463;28;20353;-64
2023/12/06 04:29:20;;;;;;;;;;;;;;;22.39;30.75;101121.03;4197103;28;19973;-64
2023/12/06 04:31:21;;;;;;;;;;;;;;;22.40;30.98;101122.75;4197310;28;19971;-64
2023/12/06 04:33:23;;;;;;;;;;;;;;;22.40;30.96;101118.22;4197248;28;20344;-64
2023/12/06 04:35:24;;;;;;;;;;;;;;;22.39;30.90;101116.50;4196954;28;20358;-64
2023/12/06 04:37:26;;;;;;;;;;;;;;;22.38;30.72;101124.66;4197205;28;19978;-64
2023/12/06 04:39:28;;;;;;;;;;;;;;;22.36;30.75;101126.59;4197354;28;20358;-64
2023/12/06 04:41:30;;;;;;;;;;;;;;;22.34;31.04;101132.91;4197177;28;19988;-65
2023/12/06 04:43:32;;;;;;;;;;;;;;;22.33;31.12;101125.88;4197031;28;20438;-64
2023/12/06 04:45:34;;;;;;;;;;;;;;;22.34;31.22;101130.25;4197017;28;19963;-64
2023/12/06 04:47:35;;;;;;;;;;;;;;;22.36;31.16;101138.19;4197257;28;19921;-64
2023/12/06 04:49:37;;;;;;;;;;;;;;;22.37;30.96;101131.84;4196885;28;19920;-64
2023/12/06 04:51:39;;;;;;;;;;;;;;;22.39;31.08;101134.44;4196938;28;19928;-64
2023/12/06 04:53:40;;;;;;;;;;;;;;;22.34;31.00;101130.25;4195692;28;19921;-64
2023/12/06 04:55:42;;;;;;;;;;;;;;;22.41;30.94;101135.19;4197173;28;19926;-65
2023/12/06 04:57:43;;;;;;;;;;;;;;;22.40;30.99;101138.81;4196858;28;19920;-65
2023/12/06 04:59:45;;;;;;;;;;;;;;;22.37;30.90;101147.06;4197045;28;19934;-65
2023/12/06 05:01:46;;;;;;;;;;;;;;;22.36;30.70;101150.72;4197137;28;20274;-65
2023/12/06 05:03:48;;;;;;;;;;;;;;;22.32;30.98;101153.66;4197285;28;19931;-65
2023/12/06 05:05:50;;;;;;;;;;;;;;;22.33;30.88;101159.84;4196815;28;19924;-66
2023/12/06 05:07:52;;;;;;;;;;;;;;;22.33;31.09;101159.84;4196826;28;19921;-65
2023/12/06 05:09:53;;;;;;;;;;;;;;;22.34;30.76;101162.41;4196950;28;19926;-66
2023/12/06 05:11:55;;;;;;;;;;;;;;;22.37;30.71;101168.50;4195703;28;19921;-65
2023/12/06 05:13:56;;;;;;;;;;;;;;;22.37;30.99;101166.69;4196866;28;20389;-65
2023/12/06 05:15:58;;;;;;;;;;;;;;;22.37;30.77;101169.38;4196908;28;19931;-65
2023/12/06 05:18:01;;;;;;;;;;;;;;;22.38;30.71;101173.75;4196723;28;19921;-65
2023/12/06 05:20:02;;;;;;;;;;;;;;;22.37;30.88;101166.69;4199838;28;19956;-65
2023/12/06 05:22:04;;;;;;;;;;;;;;;22.36;30.70;101166.78;4200172;28;19921;-65
2023/12/06 05:24:06;;;;;;;;;;;;;;;22.33;30.72;101168.75;4200028;28;19920;-65
2023/12/06 05:26:07;;;;;;;;;;;;;;;22.31;30.79;101172.53;4200206;28;19920;-65
2023/12/06 05:28:09;;;;;;;;;;;;;;;22.30;30.92;101173.50;4200029;28;19928;-65
2023/12/06 05:30:11;;;;;;;;;;;;;;;22.31;30.93;101176.06;4199998;28;19920;-65
2023/12/06 05:32:13;;;;;;;;;;;;;;;22.34;30.86;101180.31;4199822;28;19955;-64
2023/12/06 05:34:15;;;;;;;;;;;;;;;22.35;30.73;101184.72;4199558;28;19920;-65
2023/12/06 05:36:16;;;;;;;;;;;;;;;22.37;30.52;101193.50;4200010;28;20034;-65
2023/12/06 05:38:18;;;;;;;;;;;;;;;22.40;30.72;101195.09;4199595;28;19925;-65
2023/12/06 05:40:20;;;;;;;;;;;;;;;22.40;30.50;101195.94;4199910;28;19920;-65
2023/12/06 05:42:22;;;;;;;;;;;;;;;22.39;30.78;101188.88;4199716;28;20109;-65
2023/12/06 05:44:24;;;;;;;;;;;;;;;22.37;30.65;101185.44;4198618;28;19920;-65
2023/12/06 05:46:26;;;;;;;;;;;;;;;22.36;30.94;101186.41;4199410;28;20420;-64
2023/12/06 05:48:27;;;;;;;;;;;;;;;22.33;30.94;101186.63;4199246;28;20099;-65
2023/12/06 05:50:29;;;;;;;;;;;;;;;22.32;30.90;101187.59;4199664;28;19924;-65
2023/12/06 05:52:30;;;;;;;;;;;;;;;22.32;30.80;101188.47;4199366;28;19926;-65
2023/12/06 05:54:32;;;;;;;;;;;;;;;22.33;30.89;101192.88;4199707;28;20296;-64
2023/12/06 05:56:33;;;;;;;;;;;;;;;22.36;30.40;101199.81;4199254;28;19921;-65
2023/12/06 05:58:36;;;;;;;;;;;;;;;22.31;30.72;101188.63;4199456;28;20016;-65
2023/12/06 06:00:38;;;;;;;;;;;;;;;22.40;30.75;101203.13;4199600;28;20369;-64
2023/12/06 06:02:40;;;;;;;;;;;;;;;22.38;30.66;101208.59;4199190;28;19924;-64
2023/12/06 06:04:41;;;;;;;;;;;;;;;22.38;30.76;101208.59;4199218;28;19920;-65
2023/12/06 06:06:43;;;;;;;;;;;;;;;22.39;30.81;101212.16;4199274;28;19927;-66
2023/12/06 06:08:45;;;;;;;;;;;;;;;22.37;30.75;101206.00;4199382;28;19966;-66
2023/12/06 06:10:46;;;;;;;;;;;;;;;22.36;30.54;101212.34;4199518;28;19951;-66
2023/12/06 06:12:48;;;;;;;;;;;;;;;22.33;30.73;101213.44;4199515;28;20309;-66
2023/12/06 06:14:50;;;;;;;;;;;;;;;22.34;30.66;101215.16;4199252;28;19921;-66
2023/12/06 06:16:51;;;;;;;;;;;;;;;22.36;30.83;101220.38;4198974;28;20398;-65
2023/12/06 06:18:53;;;;;;;;;;;;;;;22.38;30.60;101219.31;4199334;28;20015;-64
2023/12/06 06:20:55;;;;;;;;;;;;;;;22.39;30.71;101215.66;4197810;28;20278;-64
2023/12/06 06:22:57;;;;;;;;;;;;;;;22.39;30.78;101210.31;4199273;28;19921;-66
2023/12/06 06:24:58;;;;;;;;;;;;;;;22.40;30.72;101211.19;4198905;28;20339;-65
2023/12/06 06:27:02;;;;;;;;;;;;;;;22.39;30.44;101220.19;4199160;28;20364;-66
2023/12/06 06:29:03;;;;;;;;;;;;;;;22.38;30.64;101213.09;4199359;28;20015;-66
2023/12/06 06:31:05;;;;;;;;;;;;;;;22.35;30.83;101219.53;4197883;28;20305;-66
2023/12/06 06:33:07;;;;;;;;;;;;;;;22.33;30.52;101227.72;4198845;28;19924;-66
2023/12/06 06:35:09;;;;;;;;;;;;;;;22.32;30.72;101225.13;4199008;28;19924;-66
2023/12/06 06:37:11;;;;;;;;;;;;;;;22.33;30.76;101234.88;4198994;28;19920;-66
2023/12/06 06:39:12;;;;;;;;;;;;;;;22.33;30.78;101235.75;4198634;28;20190;-66
2023/12/06 06:41:14;;;;;;;;;;;;;;;22.37;30.65;101235.50;4198749;28;19927;-66
2023/12/06 06:43:17;;;;;;;;;;;;;;;22.38;30.75;101237.19;4198605;28;19981;-65
2023/12/06 06:45:20;;;;;;;;;;;;;;;22.39;30.49;101244.31;4198535;28;19928;-64
2023/12/06 06:47:27;;;;;;;;;;;;;;;22.39;30.61;101245.16;4198609;28;19927;-65
2023/12/06 06:49:29;;;;;;;;;;;;;;;22.38;30.72;101248.81;4199165;28;19970;-65
2023/12/06 06:51:38;;;;;;;;;;;;;;;22.38;30.40;101247.94;4198755;28;19924;-64
2023/12/06 06:53:39;;;;;;;;;;;;;;;22.33;30.80;101262.53;4198835;28;19977;-64
2023/12/06 06:55:41;;;;;;;;;;;;;;;22.25;30.46;101248.00;4198847;28;20416;-65
2023/12/06 06:57:42;;;;;;;;;;;;;;;22.31;30.84;101269.84;4198710;28;19924;-65
2023/12/06 06:59:44;;;;;;;;;;;;;;;22.30;30.35;101264.59;4198841;28;19927;-66
2023/12/06 07:01:45;;;;;;;;;;;;;;;22.32;30.48;101270.69;4198179;28;20362;-66
2023/12/06 07:03:47;;;;;;;;;;;;;;;22.31;30.47;101264.47;4198491;28;19966;-66
2023/12/06 07:05:50;;;;;;;;;;;;;;;22.31;30.48;101267.16;4198667;28;20464;-66
2023/12/06 07:07:51;;;;;;;;;;;;;;;22.30;30.66;101264.59;4198458;28;19920;-67
2023/12/06 07:09:53;;;;;;;;;;;;;;;22.28;30.68;101277.25;4198461;28;19920;-66
2023/12/06 07:11:59;;;;;;;;;;;;;;;22.24;30.56;101282.00;4198442;28;19947;-67
2023/12/06 07:14:03;;;;;;;;;;;;;;;22.21;30.74;101279.53;4198243;28;19921;-67
2023/12/06 07:16:04;;;;;;;;;;;;;;;22.18;30.78;101277.94;4198126;28;19962;-67
2023/12/06 07:18:06;;;;;;;;;;;;;;;22.15;30.76;101283.56;4198377;28;20243;-67
2023/12/06 07:20:08;;;;;;;;;;;;;;;22.18;30.79;101282.47;4198136;28;20166;-67
2023/12/06 07:22:10;;;;;;;;;;;;;;;22.18;30.61;101294.03;4198365;28;19932;-66
2023/12/06 07:24:12;;;;;;;;;;;;;;;22.21;30.70;101300.13;4198363;28;20018;-67
2023/12/06 07:26:14;;;;;;;;;;;;;;;22.22;30.52;101300.00;4196881;28;19920;-66
2023/12/06 07:28:15;;;;;;;;;;;;;;;22.23;30.65;101309.75;4197172;28;19924;-66
2023/12/06 07:30:17;;;;;;;;;;;;;;;22.21;30.40;101311.69;4197897;28;19936;-65
2023/12/06 07:32:19;;;;;;;;;;;;;;;22.20;30.74;101311.81;4197835;28;20027;-65
2023/12/06 07:34:20;;;;;;;;;;;;;;;22.18;30.89;101312.78;4197834;28;19955;-64
2023/12/06 07:36:26;;;;;;;;;;;;;;;22.17;30.59;101318.25;4197780;28;19978;-65
2023/12/06 07:38:28;;;;;;;;;;;;;;;22.15;30.51;101313.03;4197791;28;20350;-63
2023/12/06 07:40:30;;;;;;;;;;;;;;;22.15;30.52;101320.19;4198006;28;19974;-65
2023/12/06 07:42:31;;;;;;;;;;;;;;;22.17;30.88;101319.09;4197954;28;20448;-65
2023/12/06 07:44:34;;;;;;;;;;;;;;;22.21;30.42;101318.88;4197223;28;20438;-64
2023/12/06 07:46:35;;;;;;;;;;;;;;;22.22;30.67;101310.72;4197514;28;19926;-65
2023/12/06 07:48:37;;;;;;;;;;;;;;;22.23;30.80;101311.59;4197848;28;19999;-65
2023/12/06 07:50:38;;;;;;;;;;;;;;;22.24;30.70;101316.00;4198076;28;19920;-65
2023/12/06 07:52:40;;;;;;;;;;;;;;;22.24;30.62;101314.16;4197824;28;20396;-65
2023/12/06 07:54:41;;;;;;;;;;;;;;;22.23;30.37;101311.59;4197646;28;19920;-65
2023/12/06 07:56:44;;;;;;;;;;;;;;;22.20;30.70;101312.69;4198013;28;19975;-65
2023/12/06 07:58:46;;;;;;;;;;;;;;;22.18;30.45;101310.09;4196202;28;19927;-65
2023/12/06 08:00:47;;;;;;;;;;;;;;;22.19;30.67;101316.34;4197720;28;19974;-65
2023/12/06 08:02:49;;;;;;;;;;;;;;;22.20;30.59;101323.41;4197611;28;19920;-66
2023/12/06 08:04:50;;;;;;;;;;;;;;;22.16;30.55;101316.53;4197555;28;19958;-65
2023/12/06 08:06:52;;;;;;;;;;;;;;;22.26;30.42;101338.13;4197561;28;19943;-64
2023/12/06 08:08:54;;;;;;;;;;;;;;;22.26;30.50;101339.00;4197682;28;19920;-65
2023/12/06 08:10:55;;;;;;;;;;;;;;;22.27;30.56;101337.19;4197279;28;19920;-64
2023/12/06 08:12:57;;;;;;;;;;;;;;;22.27;30.26;101331.81;4196978;28;20305;-64
2023/12/06 08:14:59;;;;;;;;;;;;;;;22.25;30.27;101339.97;4197459;28;19921;-64
2023/12/06 08:17:00;;;;;;;;;;;;;;;22.24;30.63;101340.09;4197447;28;19928;-65
2023/12/06 08:19:03;;;;;;;;;;;;;;;22.22;30.46;101336.69;4197283;28;19924;-64
2023/12/06 08:21:07;;;;;;;;;;;;;;;22.22;30.68;101342.03;4196239;28;20015;-65
2023/12/06 08:23:09;;;;;;;;;;;;;;;22.24;30.45;101350.81;4197417;28;19920;-65
2023/12/06 08:25:11;;;;;;;;;;;;;;;22.26;30.54;101348.84;4197230;28;20355;-64
2023/12/06 08:27:14;;;;;;;;;;;;;;;22.29;30.50;101354.00;4196759;28;19924;-65
2023/12/06 08:29:15;;;;;;;;;;;;;;;22.31;30.12;101360.09;4197149;28;19965;-65
2023/12/06 08:31:17;;;;;;;;;;;;;;;22.31;30.37;101355.59;4197291;28;19955;-64
2023/12/06 08:33:19;;;;;;;;;;;;;;;22.32;30.36;101356.44;4197227;28;19920;-65
2023/12/06 08:35:21;;;;;;;;;;;;;;;22.31;30.48;101355.59;4197298;28;19928;-65
2023/12/06 08:37:22;;;;;;;;;;;;;;;22.23;30.38;101349.94;4197096;28;19920;-66
2023/12/06 08:39:24;;;;;;;;;;;;;;;22.28;30.50;101357.66;4197387;28;19924;-66
2023/12/06 08:41:26;;;;;;;;;;;;;;;22.26;30.45;101356.91;4197253;28;20006;-65
2023/12/06 08:43:27;;;;;;;;;;;;;;;22.26;30.29;101360.44;4196822;28;19927;-65
2023/12/06 08:45:29;;;;;;;;;;;;;;;22.27;30.36;101362.16;4196688;28;19920;-65
2023/12/06 08:47:32;;;;;;;;;;;;;;;22.29;30.54;101357.53;4197052;28;20362;-66
2023/12/06 08:49:35;;;;;;;;;;;;;;;22.30;30.22;101361.91;4196911;28;20358;-65
2023/12/06 08:51:37;;;;;;;;;;;;;;;22.33;30.43;101359.00;4195709;28;19927;-66
2023/12/06 08:53:39;;;;;;;;;;;;;;;22.34;30.38;101367.91;4196582;28;19957;-65
2023/12/06 08:55:41;;;;;;;;;;;;;;;22.34;30.40;101367.91;4196875;28;19928;-66
2023/12/06 08:57:43;;;;;;;;;;;;;;;22.34;30.09;101375.94;4196661;28;19924;-64
2023/12/06 08:59:45;;;;;;;;;;;;;;;22.32;30.12;101378.75;4197032;28;19943;-66
2023/12/06 09:01:46;;;;;;;;;;;;;;;22.29;30.43;101368.25;4197074;28;19920;-66
2023/12/06 09:03:48;;;;;;;;;;;;;;;22.29;30.06;101370.06;4196942;28;20003;-66
2023/12/06 09:05:50;;;;;;;;;;;;;;;22.30;30.58;101361.06;4196821;28;19978;-66
2023/12/06 09:07:52;;;;;;;;;;;;;;;22.32;30.31;101361.78;4192905;28;20510;-65
2023/12/06 09:09:53;;;;;;;;;;;;;;;22.36;30.42;101367.78;4194222;28;19940;-66
2023/12/06 09:11:55;;;;;;;;;;;;;;;22.37;30.42;101365.00;4195220;28;19927;-64
2023/12/06 09:13:56;;;;;;;;;;;;;;;22.36;30.23;101363.28;4195916;28;19924;-64
2023/12/06 09:15:58;;;;;;;;;;;;;;;22.37;29.89;101369.50;4192528;28;19925;-63
2023/12/06 09:18:00;;;;;;;;;;;;;;;22.33;30.29;101367.06;4193411;28;19921;-63
2023/12/06 09:20:02;;;;;;;;;;;;;;;22.30;30.07;101369.13;4179347;28;19924;-62
2023/12/06 09:22:05;;;;;;;;;;;;;;;22.27;30.14;101370.19;4187895;28;20371;-64
2023/12/06 09:24:07;;;;;;;;;;;;;;;22.24;29.89;101370.41;4194037;28;19971;-64
2023/12/06 09:26:09;;;;;;;;;;;;;;;22.23;30.10;101368.69;4193285;28;19927;-64
2023/12/06 09:28:11;;;;;;;;;;;;;;;22.24;29.94;101370.41;4192593;28;19932;-64
2023/12/06 09:30:12;;;;;;;;;;;;;;;22.27;30.11;101380.03;4196597;28;20007;-64
2023/12/06 09:32:15;;;;;;;;;;;;;;;22.27;30.04;101380.91;4196065;28;20258;-64
2023/12/06 09:34:16;;;;;;;;;;;;;;;22.27;29.81;101378.25;4196217;28;20007;-64
2023/12/06 09:36:34;;;;;;;;;;;;;;;22.26;29.61;101376.53;4191275;28;19928;-64
2023/12/06 09:38:36;;;;;;;;;;;;;;;22.26;29.46;101381.00;4194447;28;19931;-63
2023/12/06 09:40:37;;;;;;;;;;;;;;;22.22;29.75;101384.91;4192255;28;19921;-63
2023/12/06 09:42:42;;;;;;;;;;;;;;;22.15;30.15;101382.69;4188946;28;19967;-69
2023/12/06 09:44:45;;;;;;;;;;;;;;;22.14;29.91;101380.97;4191545;28;20007;-67
2023/12/06 09:46:47;;;;;;;;;;;;;;;22.17;29.78;101382.56;4196203;28;20035;-69
2023/12/06 09:48:49;;;;;;;;;;;;;;;22.16;29.60;101387.06;4196466;28;19973;-71
2023/12/06 09:50:51;;;;;;;;;;;;;;;22.13;29.62;101389.97;4196086;28;19924;-62
2023/12/06 09:52:53;;;;;;;;;;;;;;;21.99;30.17;101391.00;4189615;28;19952;-68
2023/12/06 09:54:56;;;;;;;;;;;;;;;22.08;29.71;101386.78;4191972;28;19925;-73
2023/12/06 09:56:58;;;;;;;;;;;;;;;22.16;29.83;101392.44;4193805;28;19920;-67
2023/12/06 09:58:59;;;;;;;;;;;;;;;22.17;29.54;101396.78;4179955;28;19920;-67
2023/12/06 10:01:01;;;;;;;;;;;;;;;22.20;29.55;101392.19;4189855;28;19931;-66
2023/12/06 10:03:03;;;;;;;;;;;;;;;22.10;29.87;101397.38;4194527;28;19924;-65
2023/12/06 10:05:04;;;;;;;;;;;;;;;22.11;29.83;101399.94;4196283;28;19920;-66
2023/12/06 10:07:07;;;;;;;;;;;;;;;22.11;29.32;101399.94;4199014;28;19928;-69
2023/12/06 10:09:10;;;;;;;;;;;;;;;22.12;29.62;101398.97;4198771;28;19920;-66
2023/12/06 10:11:12;;;;;;;;;;;;;;;22.16;29.78;101404.97;4199194;28;19947;-64
2023/12/06 10:13:14;;;;;;;;;;;;;;;22.20;29.63;101405.59;4195456;28;19959;-70
2023/12/06 10:15:17;;;;;;;;;;;;;;;22.23;29.84;101408.06;4199080;28;19921;-67
2023/12/06 10:17:22;;;;;;;;;;;;;;;22.25;29.38;101403.41;4199254;28;19921;-65
2023/12/06 10:19:24;;;;;;;;;;;;;;;22.26;29.68;101406.00;4198064;28;19997;-65
2023/12/06 10:21:26;;;;;;;;;;;;;;;22.26;29.64;101410.50;4199286;28;19936;-65
2023/12/06 10:23:30;;;;;;;;;;;;;;;22.23;29.57;101411.56;4199121;28;19920;-68
2023/12/06 10:25:38;;;;;;;;;;;;;;;22.23;29.47;101413.41;4199001;28;19928;-65